createdAt,value
2017-05-26T00:02:00.857Z,99.90
2017-05-26T00:04:30.029Z,99.90
2017-05-26T00:06:59.138Z,99.90
2017-05-26T00:09:28.226Z,99.90
2017-05-26T00:11:57.334Z,99.90
2017-05-26T00:14:26.424Z,99.90
2017-05-26T00:16:55.532Z,99.90
2017-05-26T00:19:24.638Z,99.90
2017-05-26T00:21:53.718Z,99.90
2017-05-26T00:24:22.833Z,99.90
2017-05-26T00:26:51.925Z,99.90
2017-05-26T00:29:21.067Z,99.90
2017-05-26T00:31:50.162Z,99.90
2017-05-26T00:34:19.252Z,99.90
2017-05-26T00:36:48.378Z,99.90
2017-05-26T00:39:17.454Z,99.90
2017-05-26T00:41:46.574Z,99.90
2017-05-26T00:44:15.664Z,99.90
2017-05-26T00:46:44.756Z,99.90
2017-05-26T00:49:13.888Z,99.90
2017-05-26T00:51:42.989Z,99.90
2017-05-26T00:54:12.105Z,99.90
2017-05-26T00:56:41.192Z,99.90
2017-05-26T00:59:10.330Z,99.90
2017-05-26T01:01:39.413Z,99.90
2017-05-26T01:04:08.519Z,99.90
2017-05-26T01:06:37.668Z,99.90
2017-05-26T01:09:06.774Z,99.90
2017-05-26T01:11:35.893Z,99.90
2017-05-26T01:14:05.029Z,99.90
2017-05-26T01:16:34.143Z,99.90
2017-05-26T01:19:03.269Z,99.90
2017-05-26T01:21:32.368Z,99.90
2017-05-26T01:24:01.488Z,99.90
2017-05-26T01:26:30.587Z,99.90
2017-05-26T01:28:59.722Z,99.90
2017-05-26T01:31:28.808Z,99.90
2017-05-26T01:33:58.219Z,99.90
2017-05-26T01:36:27.468Z,99.90
2017-05-26T01:38:56.565Z,99.90
2017-05-26T01:41:25.838Z,99.90
2017-05-26T01:43:54.933Z,99.90
2017-05-26T01:46:24.025Z,99.90
2017-05-26T01:48:53.151Z,99.90
2017-05-26T01:51:22.258Z,99.90
2017-05-26T01:53:51.381Z,99.90
2017-05-26T01:56:20.484Z,99.90
2017-05-26T01:58:49.580Z,99.90
2017-05-26T02:01:18.707Z,99.90
2017-05-26T02:03:47.041Z,99.90
2017-05-26T02:06:16.172Z,99.90
2017-05-26T02:08:45.278Z,99.90
2017-05-26T02:11:14.375Z,99.90
2017-05-26T02:13:42.715Z,99.90
2017-05-26T02:16:11.809Z,99.90
2017-05-26T02:18:40.925Z,99.90
2017-05-26T02:21:10.079Z,99.90
2017-05-26T02:23:39.215Z,99.90
2017-05-26T02:26:08.349Z,99.90
2017-05-26T02:28:37.477Z,99.90
2017-05-26T02:31:06.596Z,99.90
2017-05-26T02:33:35.701Z,99.90
2017-05-26T02:36:04.817Z,99.90
2017-05-26T02:38:33.941Z,99.90
2017-05-26T02:41:03.170Z,99.90
2017-05-26T02:43:32.294Z,99.90
2017-05-26T02:46:01.373Z,99.90
2017-05-26T02:48:30.518Z,99.90
2017-05-26T02:50:59.604Z,99.90
2017-05-26T02:53:28.684Z,99.90
2017-05-26T02:55:57.799Z,99.90
2017-05-26T02:58:26.970Z,99.90
2017-05-26T03:00:56.064Z,99.90
2017-05-26T03:03:25.208Z,99.90
2017-05-26T03:05:54.328Z,99.90
2017-05-26T03:08:23.422Z,99.90
2017-05-26T03:10:52.538Z,99.90
2017-05-26T03:13:21.653Z,99.90
2017-05-26T03:15:50.788Z,99.90
2017-05-26T03:18:19.874Z,99.90
2017-05-26T03:20:48.973Z,99.90
2017-05-26T03:23:18.078Z,99.90
2017-05-26T03:25:47.171Z,99.90
2017-05-26T03:28:16.306Z,99.90
2017-05-26T03:30:45.403Z,99.90
2017-05-26T03:33:14.493Z,99.90
2017-05-26T03:35:43.612Z,99.90
2017-05-26T03:38:12.717Z,99.90
2017-05-26T03:40:41.873Z,99.90
2017-05-26T03:43:11.289Z,99.90
2017-05-26T03:45:40.386Z,99.90
2017-05-26T03:48:09.578Z,99.90
2017-05-26T03:50:38.684Z,99.90
2017-05-26T03:53:07.825Z,99.90
2017-05-26T03:55:36.926Z,99.90
2017-05-26T03:58:06.057Z,99.90
2017-05-26T04:00:35.298Z,99.90
2017-05-26T04:03:04.389Z,99.90
2017-05-26T04:05:33.510Z,99.90
2017-05-26T04:08:02.608Z,99.90
2017-05-26T04:10:31.737Z,99.90
2017-05-26T04:13:00.836Z,99.90
2017-05-26T04:15:29.950Z,99.90
2017-05-26T04:17:59.069Z,99.90
2017-05-26T04:20:28.158Z,99.90
2017-05-26T04:22:57.399Z,99.90
2017-05-26T04:25:26.486Z,99.90
2017-05-26T04:27:55.623Z,99.90
2017-05-26T04:30:24.730Z,99.90
2017-05-26T04:32:53.821Z,99.90
2017-05-26T04:35:22.941Z,99.90
2017-05-26T04:37:52.037Z,99.90
2017-05-26T04:40:21.159Z,99.90
2017-05-26T04:42:50.252Z,99.90
2017-05-26T04:45:19.472Z,99.90
2017-05-26T04:47:48.610Z,99.90
2017-05-26T04:50:17.710Z,99.90
2017-05-26T04:52:46.837Z,99.90
2017-05-26T04:55:15.929Z,99.90
2017-05-26T04:57:45.066Z,99.90
2017-05-26T05:00:14.163Z,99.90
2017-05-26T05:02:43.272Z,99.90
2017-05-26T05:05:12.386Z,99.90
2017-05-26T05:07:41.485Z,99.90
2017-05-26T05:10:10.577Z,99.90
2017-05-26T05:12:39.677Z,99.90
2017-05-26T05:15:08.802Z,99.90
2017-05-26T05:17:37.895Z,99.90
2017-05-26T05:20:07.304Z,99.90
2017-05-26T05:22:36.405Z,99.90
2017-05-26T05:25:05.530Z,99.90
2017-05-26T05:27:34.633Z,99.90
2017-05-26T05:30:03.737Z,99.90
2017-05-26T05:32:32.870Z,99.90
2017-05-26T05:35:01.980Z,99.90
2017-05-26T05:37:31.171Z,99.90
2017-05-26T05:40:00.281Z,99.90
2017-05-26T05:42:29.388Z,99.90
2017-05-26T05:44:58.483Z,99.90
2017-05-26T05:47:27.607Z,99.90
2017-05-26T05:49:56.747Z,99.90
2017-05-26T05:52:25.838Z,99.90
2017-05-26T05:54:54.969Z,99.90
2017-05-26T05:57:24.070Z,99.90
2017-05-26T05:59:53.207Z,99.90
2017-05-26T06:02:22.311Z,99.90
2017-05-26T06:04:51.425Z,99.90
2017-05-26T06:07:20.531Z,99.90
2017-05-26T06:09:49.676Z,99.90
2017-05-26T06:12:19.470Z,99.90
2017-05-26T06:14:48.646Z,99.90
2017-05-26T06:17:17.478Z,99.90
2017-05-26T06:19:46.653Z,99.90
2017-05-26T06:22:15.804Z,99.90
2017-05-26T06:24:44.988Z,99.90
2017-05-26T06:27:14.353Z,99.90
2017-05-26T06:29:43.518Z,99.90
2017-05-26T06:32:12.697Z,99.90
2017-05-26T06:34:41.837Z,99.90
2017-05-26T06:37:11.016Z,99.90
2017-05-26T06:39:40.327Z,99.90
2017-05-26T06:42:09.555Z,99.90
2017-05-26T06:44:38.673Z,99.90
2017-05-26T06:47:07.809Z,99.90
2017-05-26T06:49:37.606Z,99.90
2017-05-26T06:52:06.809Z,99.90
2017-05-26T06:54:35.957Z,99.90
2017-05-26T06:57:05.167Z,99.90
2017-05-26T06:59:34.323Z,99.90
2017-05-26T07:02:03.501Z,99.90
2017-05-26T07:04:32.625Z,99.90
2017-05-26T07:07:02.692Z,99.90
2017-05-26T07:09:32.338Z,99.90
2017-05-26T07:12:01.461Z,99.90
2017-05-26T07:14:29.829Z,99.90
2017-05-26T07:16:58.990Z,99.90
2017-05-26T07:19:28.140Z,99.90
2017-05-26T07:21:57.298Z,99.90
2017-05-26T07:24:26.458Z,99.90
2017-05-26T07:26:55.868Z,99.90
2017-05-26T07:29:25.040Z,99.90
2017-05-26T07:31:54.193Z,99.90
2017-05-26T07:34:23.382Z,99.90
2017-05-26T07:36:53.662Z,99.90
2017-05-26T07:39:22.827Z,99.90
2017-05-26T07:41:51.957Z,99.90
2017-05-26T07:44:21.154Z,99.90
2017-05-26T07:46:50.355Z,99.90
2017-05-26T07:49:19.617Z,99.90
2017-05-26T07:51:48.728Z,99.90
2017-05-26T07:54:17.869Z,99.90
2017-05-26T07:56:47.098Z,99.90
2017-05-26T07:59:16.292Z,99.90
2017-05-26T08:01:45.507Z,99.90
2017-05-26T08:04:14.653Z,99.90
2017-05-26T08:06:43.793Z,99.90
2017-05-26T08:09:13.213Z,99.90
2017-05-26T08:11:42.379Z,99.90
2017-05-26T08:14:11.584Z,99.50
2017-05-26T08:16:41.321Z,99.80
2017-05-26T08:19:10.461Z,99.90
2017-05-26T08:21:39.614Z,99.90
2017-05-26T08:24:08.835Z,99.90
2017-05-26T08:26:38.063Z,99.90
2017-05-26T08:29:06.454Z,99.90
2017-05-26T08:31:35.579Z,99.90
2017-05-26T08:34:04.940Z,99.90
2017-05-26T08:36:34.785Z,99.90
2017-05-26T08:39:03.919Z,98.10
2017-05-26T08:41:33.061Z,99.90
2017-05-26T08:44:02.205Z,98.20
2017-05-26T08:46:31.363Z,98.20
2017-05-26T08:49:00.526Z,98.50
2017-05-26T08:51:29.615Z,98.10
2017-05-26T08:53:58.801Z,98.00
2017-05-26T08:56:27.966Z,97.80
2017-05-26T08:58:57.143Z,98.10
2017-05-26T09:01:26.354Z,97.80
2017-05-26T09:03:55.493Z,96.90
2017-05-26T09:06:24.614Z,97.80
2017-05-26T09:08:53.775Z,96.40
2017-05-26T09:11:22.924Z,96.10
2017-05-26T09:13:52.085Z,95.90
2017-05-26T09:16:21.358Z,96.50
2017-05-26T09:18:50.477Z,95.80
2017-05-26T09:21:19.665Z,94.60
2017-05-26T09:23:48.910Z,94.20
2017-05-26T09:26:18.029Z,94.40
2017-05-26T09:28:47.141Z,95.10
2017-05-26T09:31:27.100Z,95.00
2017-05-26T09:33:56.200Z,95.10
2017-05-26T09:36:25.310Z,94.10
2017-05-26T09:38:55.332Z,93.20
2017-05-26T09:41:24.460Z,92.70
2017-05-26T09:43:53.569Z,91.70
2017-05-26T09:46:22.733Z,93.30
2017-05-26T09:48:51.914Z,93.20
2017-05-26T09:51:21.237Z,93.70
2017-05-26T09:53:50.405Z,91.80
2017-05-26T09:56:19.625Z,91.80
2017-05-26T09:58:48.798Z,93.20
2017-05-26T10:01:17.930Z,92.40
2017-05-26T10:03:47.447Z,93.10
2017-05-26T10:06:16.573Z,91.80
2017-05-26T10:08:45.787Z,91.10
2017-05-26T10:11:15.018Z,90.90
2017-05-26T10:13:44.170Z,90.30
2017-05-26T10:16:13.410Z,90.70
2017-05-26T10:18:42.693Z,91.00
2017-05-26T10:21:11.933Z,91.50
2017-05-26T10:23:41.061Z,91.10
2017-05-26T10:26:11.077Z,89.50
2017-05-26T10:28:40.234Z,88.40
2017-05-26T10:31:09.435Z,89.80
2017-05-26T10:33:38.574Z,88.20
2017-05-26T10:36:08.389Z,86.50
2017-05-26T10:38:37.559Z,91.40
2017-05-26T10:41:06.719Z,87.40
2017-05-26T10:43:35.894Z,86.20
2017-05-26T10:46:05.049Z,88.80
2017-05-26T10:48:34.263Z,84.50
2017-05-26T10:51:03.444Z,85.60
2017-05-26T10:53:32.658Z,85.40
2017-05-26T10:56:02.145Z,83.90
2017-05-26T10:58:31.278Z,81.50
2017-05-26T11:01:00.519Z,81.80
2017-05-26T11:03:29.661Z,82.60
2017-05-26T11:05:58.807Z,78.40
2017-05-26T11:08:27.966Z,79.00
2017-05-26T11:10:57.928Z,79.30
2017-05-26T11:13:27.124Z,78.50
2017-05-26T11:15:56.221Z,80.00
2017-05-26T11:18:26.548Z,78.70
2017-05-26T11:20:57.493Z,80.00
2017-05-26T11:23:26.630Z,77.20
2017-05-26T11:25:55.794Z,74.00
2017-05-26T11:28:24.929Z,73.50
2017-05-26T11:30:54.057Z,71.60
2017-05-26T11:33:23.195Z,77.20
2017-05-26T11:35:52.306Z,75.80
2017-05-26T11:38:21.550Z,75.80
2017-05-26T11:40:50.700Z,69.30
2017-05-26T11:43:19.860Z,74.90
2017-05-26T11:45:48.976Z,72.50
2017-05-26T11:48:18.161Z,72.30
2017-05-26T11:50:47.291Z,70.60
2017-05-26T11:53:16.398Z,68.20
2017-05-26T11:55:45.580Z,68.00
2017-05-26T11:58:14.697Z,65.70
2017-05-26T12:00:44.097Z,65.70
2017-05-26T12:03:13.477Z,65.90
2017-05-26T12:05:42.613Z,71.60
2017-05-26T12:08:11.725Z,63.30
2017-05-26T12:10:40.824Z,66.90
2017-05-26T12:13:09.973Z,64.80
2017-05-26T12:15:39.050Z,61.70
2017-05-26T12:18:08.157Z,59.60
2017-05-26T12:20:37.298Z,60.20
2017-05-26T12:23:06.407Z,60.00
2017-05-26T12:25:35.516Z,55.40
2017-05-26T12:28:04.623Z,58.50
2017-05-26T12:30:33.704Z,56.10
2017-05-26T12:33:02.813Z,59.40
2017-05-26T12:35:31.901Z,56.40
2017-05-26T12:38:01.033Z,54.10
2017-05-26T12:40:30.223Z,53.90
2017-05-26T12:42:59.308Z,52.20
2017-05-26T12:45:27.673Z,52.30
2017-05-26T12:47:56.749Z,54.20
2017-05-26T12:50:26.027Z,52.50
2017-05-26T12:52:55.118Z,53.60
2017-05-26T12:55:24.237Z,50.90
2017-05-26T12:57:53.369Z,49.30
2017-05-26T13:00:22.465Z,49.30
2017-05-26T13:02:51.569Z,47.90
2017-05-26T13:05:20.905Z,48.20
2017-05-26T13:07:49.229Z,48.10
2017-05-26T13:10:18.328Z,48.80
2017-05-26T13:12:47.441Z,48.40
2017-05-26T13:15:16.627Z,47.50
2017-05-26T13:17:45.692Z,47.50
2017-05-26T13:20:14.805Z,48.30
2017-05-26T13:22:43.905Z,47.60
2017-05-26T13:25:12.272Z,47.70
2017-05-26T13:27:41.366Z,48.10
2017-05-26T13:30:10.450Z,47.20
2017-05-26T13:32:39.552Z,44.90
2017-05-26T13:35:08.657Z,46.00
2017-05-26T13:37:37.760Z,47.70
2017-05-26T13:40:06.933Z,45.90
2017-05-26T13:42:35.953Z,47.80
2017-05-26T13:45:05.169Z,50.40
2017-05-26T13:47:34.377Z,49.90
2017-05-26T13:50:03.458Z,48.90
2017-05-26T13:52:32.577Z,48.30
2017-05-26T13:55:01.745Z,49.00
2017-05-26T13:57:30.824Z,47.20
2017-05-26T13:59:59.160Z,47.20
2017-05-26T14:02:28.265Z,45.20
2017-05-26T14:04:57.397Z,43.80
2017-05-26T14:07:26.558Z,45.20
2017-05-26T14:09:55.669Z,46.00
2017-05-26T14:12:24.756Z,45.20
2017-05-26T14:14:53.849Z,44.70
2017-05-26T14:17:22.935Z,43.10
2017-05-26T14:19:52.044Z,43.90
2017-05-26T14:22:21.145Z,44.90
2017-05-26T14:24:50.329Z,45.90
2017-05-26T14:27:19.421Z,49.50
2017-05-26T14:29:48.536Z,49.90
2017-05-26T14:32:17.634Z,49.30
2017-05-26T14:34:46.706Z,52.00
2017-05-26T14:37:15.045Z,52.00
2017-05-26T14:39:44.124Z,50.70
2017-05-26T14:42:13.246Z,54.20
2017-05-26T14:44:42.338Z,56.20
2017-05-26T14:47:11.486Z,58.50
2017-05-26T14:49:39.850Z,58.50
2017-05-26T14:52:08.952Z,60.20
2017-05-26T14:54:38.083Z,60.20
2017-05-26T14:57:07.181Z,62.70
2017-05-26T14:59:36.363Z,61.00
2017-05-26T15:02:05.540Z,60.60
2017-05-26T15:04:34.638Z,62.10
2017-05-26T15:07:03.772Z,60.10
2017-05-26T15:09:32.869Z,61.20
2017-05-26T15:12:02.051Z,63.60
2017-05-26T15:14:31.153Z,64.40
2017-05-26T15:17:00.240Z,65.30
2017-05-26T15:19:29.367Z,65.30
2017-05-26T15:21:58.461Z,66.70
2017-05-26T15:24:27.593Z,65.20
2017-05-26T15:26:56.797Z,66.00
2017-05-26T15:29:25.894Z,68.40
2017-05-26T15:31:55.241Z,66.40
2017-05-26T15:34:24.342Z,66.40
2017-05-26T15:36:52.977Z,66.30
2017-05-26T15:39:22.080Z,65.70
2017-05-26T15:41:51.265Z,67.00
2017-05-26T15:44:20.559Z,64.80
2017-05-26T15:46:49.657Z,63.60
2017-05-26T15:49:18.027Z,63.60
2017-05-26T15:51:47.100Z,62.90
2017-05-26T15:54:16.285Z,66.20
2017-05-26T15:56:45.421Z,65.60
2017-05-26T15:59:14.529Z,63.60
2017-05-26T16:01:43.673Z,65.30
2017-05-26T16:04:12.082Z,62.60
2017-05-26T16:06:41.245Z,67.30
2017-05-26T16:09:10.351Z,66.00
2017-05-26T16:11:39.456Z,65.40
2017-05-26T16:14:08.590Z,68.00
2017-05-26T16:16:37.709Z,69.00
2017-05-26T16:19:06.925Z,67.10
2017-05-26T16:21:36.046Z,67.80
2017-05-26T16:24:04.477Z,67.80
2017-05-26T16:26:33.782Z,68.60
2017-05-26T16:29:02.894Z,67.60
2017-05-26T16:31:32.069Z,68.40
2017-05-26T16:34:01.165Z,68.00
2017-05-26T16:36:30.356Z,68.60
2017-05-26T16:38:59.467Z,69.90
2017-05-26T16:41:28.553Z,70.50
2017-05-26T16:43:57.688Z,70.80
2017-05-26T16:46:26.779Z,70.40
2017-05-26T16:48:55.926Z,69.70
2017-05-26T16:51:25.079Z,69.20
2017-05-26T16:53:54.210Z,70.70
2017-05-26T16:56:23.397Z,72.30
2017-05-26T16:58:52.528Z,71.90
2017-05-26T17:01:21.699Z,70.80
2017-05-26T17:03:51.730Z,72.90
2017-05-26T17:06:20.843Z,73.00
2017-05-26T17:08:50.019Z,73.40
2017-05-26T17:11:19.157Z,74.40
2017-05-26T17:13:48.346Z,74.90
2017-05-26T17:16:17.439Z,76.40
2017-05-26T17:18:46.551Z,76.80
2017-05-26T17:21:15.692Z,77.30
2017-05-26T17:23:44.825Z,76.10
2017-05-26T17:26:13.955Z,76.60
2017-05-26T17:28:44.313Z,77.70
2017-05-26T17:31:13.477Z,78.70
2017-05-26T17:33:42.666Z,79.40
2017-05-26T17:36:11.775Z,79.60
2017-05-26T17:38:40.963Z,79.50
2017-05-26T17:41:10.283Z,80.10
2017-05-26T17:43:39.499Z,80.40
2017-05-26T17:46:08.672Z,81.90
2017-05-26T17:48:37.758Z,82.80
2017-05-26T17:51:07.078Z,83.20
2017-05-26T17:53:36.209Z,83.70
2017-05-26T17:56:05.333Z,84.00
2017-05-26T17:58:34.492Z,84.60
2017-05-26T18:01:03.599Z,83.00
2017-05-26T18:03:32.713Z,82.80
2017-05-26T18:06:01.806Z,84.60
2017-05-26T18:08:30.942Z,84.30
2017-05-26T18:11:00.035Z,84.30
2017-05-26T18:13:29.129Z,83.40
2017-05-26T18:15:58.230Z,83.20
2017-05-26T18:18:27.470Z,83.80
2017-05-26T18:20:57.042Z,83.30
2017-05-26T18:23:26.136Z,85.70
2017-05-26T18:25:55.295Z,86.30
2017-05-26T18:28:24.398Z,87.60
2017-05-26T18:30:53.498Z,89.20
2017-05-26T18:33:22.627Z,90.00
2017-05-26T18:35:51.750Z,90.60
2017-05-26T18:38:20.834Z,91.40
2017-05-26T18:40:49.955Z,91.50
2017-05-26T18:43:19.059Z,91.30
2017-05-26T18:45:48.185Z,91.60
2017-05-26T18:48:17.354Z,91.80
2017-05-26T18:50:46.474Z,92.30
2017-05-26T18:53:15.582Z,92.70
2017-05-26T18:55:44.677Z,93.10
2017-05-26T18:58:13.826Z,93.30
2017-05-26T19:00:42.942Z,93.30
2017-05-26T19:03:12.069Z,93.70
2017-05-26T19:05:41.170Z,94.20
2017-05-26T19:08:10.258Z,94.40
2017-05-26T19:10:39.375Z,94.50
2017-05-26T19:13:08.454Z,94.60
2017-05-26T19:15:37.601Z,95.20
2017-05-26T19:18:06.714Z,95.40
2017-05-26T19:20:35.851Z,96.20
2017-05-26T19:23:04.960Z,96.20
2017-05-26T19:25:34.043Z,96.70
2017-05-26T19:28:03.174Z,96.80
2017-05-26T19:30:32.297Z,96.90
2017-05-26T19:33:01.456Z,97.50
2017-05-26T19:35:30.773Z,97.40
2017-05-26T19:37:59.996Z,98.00
2017-05-26T19:40:29.092Z,98.30
2017-05-26T19:42:58.184Z,98.80
2017-05-26T19:45:27.423Z,99.20
2017-05-26T19:47:56.533Z,99.70
2017-05-26T19:50:25.655Z,99.90
2017-05-26T19:52:54.742Z,99.80
2017-05-26T19:55:24.318Z,99.90
2017-05-26T19:57:53.415Z,99.90
2017-05-26T20:00:22.724Z,99.90
2017-05-26T20:02:51.835Z,99.90
2017-05-26T20:05:20.953Z,99.90
2017-05-26T20:07:50.075Z,99.90
2017-05-26T20:10:19.219Z,99.90
2017-05-26T20:12:48.310Z,99.90
2017-05-26T20:15:17.429Z,99.90
2017-05-26T20:17:46.572Z,99.90
2017-05-26T20:20:15.644Z,99.90
2017-05-26T20:22:44.741Z,99.90
2017-05-26T20:25:13.852Z,99.90
2017-05-26T20:27:42.949Z,99.90
2017-05-26T20:30:12.101Z,99.90
2017-05-26T20:32:41.200Z,99.90
2017-05-26T20:35:10.364Z,99.90
2017-05-26T20:37:39.483Z,99.90
2017-05-26T20:40:08.661Z,99.90
2017-05-26T20:42:37.858Z,99.90
2017-05-26T20:45:06.946Z,99.90
2017-05-26T20:47:36.085Z,99.90
2017-05-26T20:50:04.422Z,99.90
2017-05-26T20:52:33.525Z,99.90
2017-05-26T20:55:02.661Z,99.90
2017-05-26T20:57:31.758Z,99.90
2017-05-26T21:00:00.874Z,99.90
2017-05-26T21:02:29.989Z,99.90
2017-05-26T21:04:59.127Z,99.90
2017-05-26T21:07:28.345Z,99.90
2017-05-26T21:09:57.465Z,99.90
2017-05-26T21:12:26.577Z,99.90
2017-05-26T21:14:55.680Z,99.90
2017-05-26T21:17:24.794Z,99.90
2017-05-26T21:19:53.897Z,99.90
2017-05-26T21:22:23.029Z,99.90
2017-05-26T21:24:52.133Z,99.90
2017-05-26T21:27:21.277Z,99.90
2017-05-26T21:29:50.401Z,99.90
2017-05-26T21:32:19.498Z,99.90
2017-05-26T21:34:48.625Z,99.90
2017-05-26T21:37:17.736Z,99.90
2017-05-26T21:39:46.850Z,99.90
2017-05-26T21:42:15.961Z,99.90
2017-05-26T21:44:45.059Z,99.90
2017-05-26T21:47:14.177Z,99.90
2017-05-26T21:49:43.286Z,99.90
2017-05-26T21:52:12.419Z,99.90
2017-05-26T21:54:41.517Z,99.90
2017-05-26T21:57:10.637Z,99.90
2017-05-26T21:59:39.750Z,99.90
2017-05-26T22:02:08.838Z,99.90
2017-05-26T22:04:37.962Z,99.90
2017-05-26T22:07:07.075Z,99.90
2017-05-26T22:09:36.246Z,99.90
2017-05-26T22:12:05.356Z,99.90
2017-05-26T22:14:33.741Z,99.90
2017-05-26T22:17:02.845Z,99.90
2017-05-26T22:19:32.039Z,99.90
2017-05-26T22:22:01.229Z,99.90
2017-05-26T22:24:30.319Z,99.90
2017-05-26T22:26:59.494Z,99.90
2017-05-26T22:29:29.015Z,99.90
2017-05-26T22:31:58.255Z,99.90
2017-05-26T22:34:27.702Z,99.90
2017-05-26T22:36:56.800Z,99.90
2017-05-26T22:39:25.934Z,99.90
2017-05-26T22:41:55.050Z,99.90
2017-05-26T22:44:24.163Z,99.90
2017-05-26T22:46:53.281Z,99.90
2017-05-26T22:49:22.380Z,99.90
2017-05-26T22:51:51.489Z,99.90
2017-05-26T22:54:20.602Z,99.90
2017-05-26T22:56:49.704Z,99.90
2017-05-26T22:59:18.825Z,99.90
2017-05-26T23:01:47.932Z,99.90
2017-05-26T23:04:17.148Z,99.90
2017-05-26T23:06:46.271Z,99.90
2017-05-26T23:09:15.372Z,99.90
2017-05-26T23:11:44.496Z,99.90
2017-05-26T23:14:13.797Z,99.90
2017-05-26T23:16:42.927Z,99.90
2017-05-26T23:19:12.023Z,99.90
2017-05-26T23:21:41.146Z,99.90
2017-05-26T23:24:10.274Z,99.90
2017-05-26T23:26:39.366Z,99.90
2017-05-26T23:29:08.488Z,99.90
2017-05-26T23:31:37.576Z,99.90
2017-05-26T23:34:06.717Z,99.90
2017-05-26T23:36:35.845Z,99.90
2017-05-26T23:39:04.198Z,99.90
2017-05-26T23:41:33.317Z,99.90
2017-05-26T23:44:01.674Z,99.90
2017-05-26T23:46:30.790Z,99.90
2017-05-26T23:48:59.908Z,99.90
2017-05-26T23:51:29.018Z,99.90
2017-05-26T23:53:58.110Z,99.90
2017-05-26T23:56:26.463Z,99.90
2017-05-26T23:58:55.546Z,99.90
